createdAt,value
2019-05-20T00:02:37.807Z,9.30
2019-05-20T00:07:40.345Z,9.20
2019-05-20T00:12:42.993Z,10.40
2019-05-20T00:17:45.569Z,9.63
2019-05-20T00:22:48.171Z,9.10
2019-05-20T00:27:50.747Z,10.37
2019-05-20T00:32:53.283Z,9.53
2019-05-20T00:37:59.208Z,10.50
2019-05-20T00:43:01.761Z,11.07
2019-05-20T00:48:04.349Z,8.87
2019-05-20T00:53:06.980Z,9.30
2019-05-20T00:58:09.650Z,10.70
2019-05-20T01:03:12.245Z,8.97
2019-05-20T01:08:14.839Z,9.50
2019-05-20T01:13:17.349Z,8.67
2019-05-20T01:18:19.961Z,8.50
2019-05-20T01:23:22.553Z,8.60
2019-05-20T01:28:25.139Z,9.30
2019-05-20T01:33:30.994Z,9.03
2019-05-20T01:38:33.553Z,8.33
2019-05-20T01:43:36.128Z,9.93
2019-05-20T01:48:38.641Z,8.40
2019-05-20T01:53:41.245Z,8.77
2019-05-20T01:58:43.760Z,8.77
2019-05-20T02:03:46.362Z,9.33
2019-05-20T02:08:48.945Z,9.90
2019-05-20T02:13:56.850Z,9.17
2019-05-20T02:18:59.437Z,9.63
2019-05-20T02:24:02.077Z,8.80
2019-05-20T02:29:04.665Z,8.50
2019-05-20T02:34:07.212Z,9.87
2019-05-20T02:39:09.740Z,9.80
2019-05-20T02:44:12.386Z,9.00
2019-05-20T02:49:14.950Z,10.40
2019-05-20T02:54:17.478Z,10.03
2019-05-20T02:59:20.054Z,9.57
2019-05-20T03:04:22.622Z,11.53
2019-05-20T03:09:25.125Z,10.70
2019-05-20T03:14:27.795Z,9.63
2019-05-20T03:19:30.328Z,10.53
2019-05-20T03:24:32.909Z,12.10
2019-05-20T03:29:35.444Z,12.10
2019-05-20T03:34:47.661Z,11.80
2019-05-20T03:39:40.641Z,11.40
2019-05-20T03:44:43.229Z,11.97
2019-05-20T03:49:45.749Z,12.10
2019-05-20T03:54:48.322Z,12.03
2019-05-20T03:59:50.872Z,11.43
2019-05-20T04:05:02.224Z,11.77
2019-05-20T04:09:56.069Z,11.80
2019-05-20T04:14:58.619Z,13.47
2019-05-20T04:20:01.193Z,14.20
2019-05-20T04:25:04.215Z,12.80
2019-05-20T04:30:06.879Z,15.23
2019-05-20T04:35:21.718Z,12.70
2019-05-20T04:40:12.303Z,12.23
2019-05-20T04:45:15.106Z,12.13
2019-05-20T04:50:17.692Z,12.47
2019-05-20T04:55:20.238Z,13.07
2019-05-20T05:00:55.641Z,11.93
2019-05-20T05:05:58.276Z,11.83
2019-05-20T05:11:00.847Z,12.37
2019-05-20T05:16:03.547Z,13.17
2019-05-20T05:21:06.135Z,11.83
2019-05-20T05:26:08.728Z,11.97
2019-05-20T05:31:11.254Z,12.40
2019-05-20T05:36:13.865Z,12.83
2019-05-20T05:41:18.191Z,12.13
2019-05-20T05:46:20.786Z,11.13
2019-05-20T05:51:23.440Z,12.60
2019-05-20T05:56:25.971Z,11.70
2019-05-20T06:01:30.391Z,13.33
2019-05-20T06:06:32.925Z,12.00
2019-05-20T06:11:35.488Z,10.80
2019-05-20T06:16:38.069Z,12.23
2019-05-20T06:21:40.690Z,10.33
2019-05-20T06:26:49.509Z,11.60
2019-05-20T06:31:52.971Z,10.87
2019-05-20T06:36:55.713Z,11.97
2019-05-20T06:41:58.387Z,10.67
2019-05-20T06:47:00.909Z,11.27
2019-05-20T06:52:03.545Z,12.37
2019-05-20T06:57:06.415Z,11.40
2019-05-20T07:02:08.784Z,12.37
2019-05-20T07:07:20.316Z,12.37
2019-05-20T07:12:13.998Z,11.83
2019-05-20T07:17:16.565Z,12.63
2019-05-20T07:22:19.170Z,13.57
2019-05-20T07:27:21.741Z,11.57
2019-05-20T07:32:24.245Z,11.53
2019-05-20T07:37:26.795Z,11.70
2019-05-20T07:42:29.449Z,12.03
2019-05-20T07:47:32.087Z,12.53
2019-05-20T07:52:34.686Z,12.33
2019-05-20T07:57:37.391Z,13.27
2019-05-20T08:02:40.111Z,12.40
2019-05-20T08:07:51.789Z,12.43
2019-05-20T08:12:45.240Z,12.77
2019-05-20T08:17:47.844Z,12.00
2019-05-20T08:22:50.535Z,14.40
2019-05-20T08:27:53.269Z,12.83
2019-05-20T08:32:55.804Z,14.00
2019-05-20T08:37:58.424Z,12.20
2019-05-20T08:43:00.979Z,11.07
2019-05-20T08:48:07.803Z,10.70
2019-05-20T08:53:10.384Z,11.93
2019-05-20T08:58:12.993Z,12.53
2019-05-20T09:03:15.555Z,12.97
2019-05-20T09:08:18.191Z,12.47
2019-05-20T09:13:20.781Z,13.07
2019-05-20T09:18:23.477Z,11.93
2019-05-20T09:23:31.429Z,11.53
2019-05-20T09:28:34.042Z,11.57
2019-05-20T09:33:36.777Z,14.63
2019-05-20T09:38:39.395Z,12.57
2019-05-20T09:43:41.981Z,12.03
2019-05-20T09:48:44.575Z,12.37
2019-05-20T09:53:47.113Z,11.90
2019-05-20T09:58:49.706Z,13.03
2019-05-20T10:03:52.688Z,11.50
2019-05-20T10:08:55.341Z,12.93
2019-05-20T10:13:57.903Z,10.73
2019-05-20T10:19:00.503Z,12.17
2019-05-20T10:24:03.465Z,11.90
2019-05-20T10:29:06.096Z,12.57
2019-05-20T10:34:08.618Z,13.47
2019-05-20T10:39:11.201Z,11.67
2019-05-20T10:44:13.900Z,11.03
2019-05-20T10:49:16.479Z,11.90
2019-05-20T10:54:19.046Z,11.43
2019-05-20T10:59:21.637Z,13.70
2019-05-20T11:04:24.173Z,13.00
2019-05-20T11:09:26.783Z,13.43
2019-05-20T11:14:29.341Z,12.57
2019-05-20T11:19:31.946Z,12.57
2019-05-20T11:24:34.559Z,13.23
2019-05-20T11:29:37.133Z,12.73
2019-05-20T11:34:39.759Z,11.03
2019-05-20T11:39:42.343Z,10.47
2019-05-20T11:44:44.932Z,10.77
2019-05-20T11:49:47.550Z,13.20
2019-05-20T11:54:50.228Z,14.27
2019-05-20T11:59:54.804Z,13.30
2019-05-20T12:04:57.413Z,19.20
2019-05-20T12:10:00.005Z,16.53
2019-05-20T12:15:04.015Z,13.73
2019-05-20T12:20:07.032Z,12.00
2019-05-20T12:25:08.669Z,11.63
2019-05-20T12:30:11.538Z,12.23
2019-05-20T12:35:14.254Z,12.80
2019-05-20T12:40:16.764Z,13.37
2019-05-20T12:45:19.407Z,12.33
2019-05-20T12:50:22.069Z,13.97
2019-05-20T12:55:24.677Z,14.27
2019-05-20T13:00:28.244Z,15.87
2019-05-20T13:05:30.769Z,15.70
2019-05-20T13:10:33.374Z,15.40
2019-05-20T13:15:35.933Z,17.50
2019-05-20T13:20:38.521Z,16.30
2019-05-20T13:25:41.084Z,17.47
2019-05-20T13:30:43.590Z,17.90
2019-05-20T13:35:46.148Z,16.70
2019-05-20T13:40:48.708Z,16.20
2019-05-20T13:45:51.340Z,17.57
2019-05-20T13:50:53.900Z,17.63
2019-05-20T13:55:56.569Z,16.97
2019-05-20T14:00:59.108Z,17.30
2019-05-20T14:06:01.677Z,14.40
2019-05-20T14:11:05.099Z,15.97
2019-05-20T14:16:07.009Z,16.67
2019-05-20T14:21:09.609Z,15.97
2019-05-20T14:26:12.258Z,16.77
2019-05-20T14:31:14.859Z,15.37
2019-05-20T14:36:37.707Z,17.23
2019-05-20T14:41:22.002Z,15.43
2019-05-20T14:46:23.493Z,15.17
2019-05-20T14:51:26.039Z,13.47
2019-05-20T14:56:28.659Z,13.23
2019-05-20T15:01:31.217Z,13.70
2019-05-20T15:06:33.788Z,13.50
2019-05-20T15:11:38.471Z,13.47
2019-05-20T15:16:39.154Z,15.70
2019-05-20T15:21:41.865Z,14.87
2019-05-20T15:26:44.511Z,14.83
2019-05-20T15:31:47.075Z,13.60
2019-05-20T15:36:49.681Z,14.03
2019-05-20T15:41:52.472Z,13.83
2019-05-20T15:46:55.067Z,14.60
2019-05-20T15:51:57.793Z,14.97
2019-05-20T15:57:00.417Z,15.03
2019-05-20T16:02:03.369Z,13.73
2019-05-20T16:07:06.092Z,14.37
2019-05-20T16:12:08.834Z,14.60
2019-05-20T16:17:11.425Z,16.63
2019-05-20T16:22:14.050Z,16.13
2019-05-20T16:27:16.664Z,17.40
2019-05-20T16:32:19.319Z,16.00
2019-05-20T16:37:21.922Z,16.60
2019-05-20T16:42:24.553Z,17.80
2019-05-20T16:47:27.049Z,17.33
2019-05-20T16:52:29.682Z,12.83
2019-05-20T16:57:32.280Z,9.97
2019-05-20T17:02:34.864Z,7.20
2019-05-20T17:07:37.501Z,4.20
2019-05-20T17:12:40.081Z,3.47
2019-05-20T17:17:42.715Z,4.73
2019-05-20T17:22:45.412Z,7.53
2019-05-20T17:27:47.997Z,7.10
2019-05-20T17:32:50.557Z,5.73
2019-05-20T17:37:55.303Z,5.57
2019-05-20T17:42:55.771Z,5.17
2019-05-20T17:47:58.343Z,4.57
2019-05-20T17:53:00.986Z,4.70
2019-05-20T17:58:03.561Z,4.20
2019-05-20T18:03:06.206Z,5.13
2019-05-20T18:08:08.817Z,7.97
2019-05-20T18:13:11.527Z,8.20
2019-05-20T18:18:14.121Z,6.50
2019-05-20T18:23:16.689Z,9.57
2019-05-20T18:28:19.297Z,5.33
2019-05-20T18:33:21.920Z,6.80
2019-05-20T18:38:24.588Z,6.00
2019-05-20T18:43:27.191Z,6.10
2019-05-20T18:48:29.829Z,6.50
2019-05-20T18:53:32.420Z,5.53
2019-05-20T18:58:35.018Z,5.33
2019-05-20T19:03:37.775Z,4.67
2019-05-20T19:08:40.532Z,4.77
2019-05-20T19:13:43.736Z,3.90
2019-05-20T19:18:46.395Z,4.43
2019-05-20T19:23:49.099Z,4.37
2019-05-20T19:28:51.788Z,5.83
2019-05-20T19:33:54.371Z,6.13
2019-05-20T19:38:57.113Z,5.17
2019-05-20T19:43:59.701Z,5.43
2019-05-20T19:49:02.360Z,4.87
2019-05-20T19:54:05.011Z,4.87
2019-05-20T19:59:07.649Z,6.10
2019-05-20T20:04:10.543Z,6.87
2019-05-20T20:09:13.102Z,5.33
2019-05-20T20:14:15.739Z,5.77
2019-05-20T20:19:18.329Z,5.10
2019-05-20T20:24:20.946Z,6.13
2019-05-20T20:29:23.541Z,4.97
2019-05-20T20:34:26.167Z,4.97
2019-05-20T20:39:28.799Z,4.87
2019-05-20T20:44:31.338Z,3.40
2019-05-20T20:49:34.043Z,4.43
2019-05-20T20:54:36.637Z,3.47
2019-05-20T20:59:39.201Z,4.10
2019-05-20T21:04:42.071Z,4.47
2019-05-20T21:09:44.681Z,4.90
2019-05-20T21:14:47.239Z,4.87
2019-05-20T21:19:49.841Z,5.67
2019-05-20T21:24:52.438Z,5.17
2019-05-20T21:29:54.937Z,6.13
2019-05-20T21:34:57.573Z,5.70
2019-05-20T21:40:00.319Z,6.57
2019-05-20T21:45:03.049Z,7.17
2019-05-20T21:50:05.697Z,7.20
2019-05-20T21:55:08.336Z,7.43
2019-05-20T22:00:11.675Z,7.63
2019-05-20T22:05:14.293Z,7.27
2019-05-20T22:10:16.941Z,8.60
2019-05-20T22:15:19.569Z,9.27
2019-05-20T22:20:22.235Z,9.00
2019-05-20T22:25:24.847Z,10.43
2019-05-20T22:30:27.449Z,9.83
2019-05-20T22:35:29.998Z,9.80
2019-05-20T22:40:32.605Z,8.93
2019-05-20T22:45:35.162Z,9.63
2019-05-20T22:50:37.807Z,9.87
2019-05-20T22:55:40.464Z,10.17
2019-05-20T23:00:43.084Z,8.23
2019-05-20T23:05:45.716Z,9.60
2019-05-20T23:10:48.380Z,10.33
2019-05-20T23:15:50.969Z,10.20
2019-05-20T23:20:53.577Z,9.43
2019-05-20T23:25:56.126Z,9.00
2019-05-20T23:30:58.747Z,8.87
2019-05-20T23:36:01.339Z,9.23
2019-05-20T23:41:03.981Z,8.97
2019-05-20T23:46:09.383Z,9.33
2019-05-20T23:51:11.788Z,8.50
2019-05-20T23:56:14.183Z,8.80
